WIOO

Details ICAO WIOO (PNK)
Name Pontianak Supadio
Region Indonesia
Timezone Asia/Pontianak (UTC+7.0)
Plans Departing 49
Arriving 47
Stats Elevation 10 ft / 3 m (AMSL)
Location -0.150708° 109.403890°
Runways 1
Magnetic Variation 0.499° E
Sunrise 2017-12-15 22:35:22 UTC / 2017-12-16 05:35:22 Local
Sunset 2017-12-16 10:43:09 UTC / 2017-12-16 17:43:09 Local
Advertisement - Login to hide

Runways

ID Width Length Bearing (true) Bearing (mag) Surface Threshold Offset Overrun Length
15 98 ft / 30 m 7,400 ft / 2,256 m 157.81° 157.31° Asphalt 0 ft / 0 m 213 ft / 65 m
33 98 ft / 30 m 7,400 ft / 2,256 m 337.81° 337.31° Asphalt 0 ft / 0 m 197 ft / 60 m

Approach Navaids

Runway Type Ident Frequency Range Bearing (true) Bearing (mag) Slope Elevation
15 Localiser IPNK 111.30 MHz 18 nm / 33 km 157.35° 156.85° - 10 ft / 3 m (AMSL)
15 Glidescope IPNK 111.30 MHz 10 nm / 19 km 157.81° 157.32° 3.00° 10 ft / 3 m (AMSL)

Map

Weather


0- 5 10 15 20 25 30 35+ Temperature / ° C

Clouds and Precipitation
Forecast for 2017-12-16 12:00 UTC. Updated 2 hours ago

Ground ~20,000 ft ~40,000 ft Winds

METAR

WIOO 161300Z 28004KT 6000 FEW012 27/24 Q1011 NOSIG

TAF

Not found

Frequencies

Recorded 127.40 MHz ATIS
Approach 119.00 MHz PONTIANAK APP
Tower 118.30 MHz TWR
Warning: Do not use this data for real-world aviation or navigation. No guarantee of current accuracy is given.